createdAt,value
2018-05-10T00:04:07.492Z,10.62
2018-05-10T00:15:08.122Z,10.82
2018-05-10T00:26:09.281Z,10.82
2018-05-10T00:37:11.658Z,10.72
2018-05-10T00:48:13.220Z,11.02
2018-05-10T00:59:15.711Z,10.92
2018-05-10T01:10:16.839Z,11.21
2018-05-10T01:21:18.666Z,11.11
2018-05-10T01:32:20.467Z,11.31
2018-05-10T01:43:22.247Z,11.50
2018-05-10T01:54:23.373Z,11.70
2018-05-10T02:05:25.142Z,11.90
2018-05-10T02:16:25.842Z,11.80
2018-05-10T02:27:28.072Z,11.80
2018-05-10T02:38:29.508Z,11.80
2018-05-10T02:49:32.139Z,11.90
2018-05-10T03:00:34.177Z,11.80
2018-05-10T03:11:35.844Z,11.80
2018-05-10T03:22:37.463Z,11.80
2018-05-10T03:33:39.756Z,11.60
2018-05-10T03:44:41.746Z,11.60
2018-05-10T03:55:44.173Z,11.31
2018-05-10T04:06:46.418Z,11.31
2018-05-10T04:17:48.126Z,11.60
2018-05-10T04:28:51.777Z,11.80
2018-05-10T04:39:53.415Z,12.19
2018-05-10T04:50:54.321Z,12.58
2018-05-10T05:01:54.777Z,13.26
2018-05-10T05:12:56.933Z,13.85
2018-05-10T05:23:58.577Z,14.14
2018-05-10T05:35:00.251Z,14.24
2018-05-10T05:46:00.273Z,14.34
2018-05-10T05:57:00.693Z,14.63
2018-05-10T06:07:58.956Z,14.54
2018-05-10T06:19:01.054Z,14.83
2018-05-10T06:30:01.047Z,15.51
2018-05-10T06:41:01.360Z,16.10
2018-05-10T06:51:55.837Z,16.69
2018-05-10T07:02:54.387Z,17.18
2018-05-10T07:13:54.929Z,17.47
2018-05-10T07:24:54.471Z,18.06
2018-05-10T07:35:54.094Z,18.35
2018-05-10T07:46:53.747Z,18.84
2018-05-10T07:57:51.740Z,19.23
2018-05-10T08:08:52.853Z,19.52
2018-05-10T08:19:54.959Z,20.11
2018-05-10T08:30:55.557Z,20.31
2018-05-10T08:41:58.529Z,20.50
2018-05-10T08:52:40.386Z,20.99
2018-05-10T09:03:21.388Z,21.58
2018-05-10T09:14:04.509Z,21.58
2018-05-10T09:24:41.835Z,21.68
2018-05-10T09:35:25.191Z,21.97
2018-05-10T09:46:09.087Z,22.26
2018-05-10T09:56:46.058Z,22.95
2018-05-10T10:07:29.348Z,22.75
2018-05-10T10:18:12.226Z,23.24
2018-05-10T10:28:54.380Z,23.24
2018-05-10T10:39:37.829Z,23.34
2018-05-10T10:50:20.935Z,23.44
2018-05-10T11:01:05.406Z,24.41
2018-05-10T11:11:48.878Z,23.83
2018-05-10T11:22:33.660Z,24.71
2018-05-10T11:33:16.674Z,25.39
2018-05-10T11:44:00.709Z,27.54
2018-05-10T11:54:42.618Z,25.00
2018-05-10T12:05:21.987Z,24.02
2018-05-10T12:16:04.981Z,23.34
2018-05-10T12:26:43.588Z,22.56
2018-05-10T12:37:30.911Z,22.56
2018-05-10T12:48:09.380Z,22.16
2018-05-10T12:58:56.334Z,24.02
2018-05-10T13:09:42.047Z,25.00
2018-05-10T13:20:28.488Z,28.23
2018-05-10T13:31:09.444Z,24.32
2018-05-10T13:41:51.124Z,22.95
2018-05-10T13:52:35.181Z,23.83
2018-05-10T14:03:21.381Z,25.88
2018-05-10T14:14:02.134Z,25.00
2018-05-10T14:24:44.653Z,23.44
2018-05-10T14:35:22.859Z,23.83
2018-05-10T14:46:05.891Z,23.05
2018-05-10T14:56:51.924Z,24.02
2018-05-10T15:07:34.553Z,23.73
2018-05-10T15:18:15.805Z,23.44
2018-05-10T15:29:16.928Z,23.05
2018-05-10T15:40:16.106Z,22.46
2018-05-10T15:50:57.157Z,22.46
2018-05-10T16:01:39.814Z,22.16
2018-05-10T16:12:22.864Z,22.07
2018-05-10T16:23:23.631Z,21.87
2018-05-10T16:34:24.111Z,21.68
2018-05-10T16:45:25.573Z,21.68
2018-05-10T16:56:06.134Z,21.68
2018-05-10T17:07:08.248Z,21.48
2018-05-10T17:18:08.817Z,20.99
2018-05-10T17:29:09.811Z,20.60
2018-05-10T17:40:08.660Z,20.11
2018-05-10T17:51:09.126Z,19.82
2018-05-10T18:02:10.268Z,19.43
2018-05-10T18:13:05.427Z,19.13
2018-05-10T18:24:05.128Z,19.04
2018-05-10T18:35:02.621Z,18.74
2018-05-10T18:45:54.487Z,18.84
2018-05-10T18:56:52.711Z,18.64
2018-05-10T19:07:51.698Z,18.25
2018-05-10T19:18:52.193Z,17.96
2018-05-10T19:29:50.665Z,17.76
2018-05-10T19:40:50.110Z,17.47
2018-05-10T19:51:48.984Z,17.76
2018-05-10T20:02:48.952Z,17.57
2018-05-10T20:13:50.448Z,17.57
2018-05-10T20:24:47.781Z,17.27
2018-05-10T20:35:47.025Z,17.08
2018-05-10T20:46:46.484Z,16.98
2018-05-10T20:57:45.238Z,16.88
2018-05-10T21:08:45.372Z,16.40
2018-05-10T21:19:46.344Z,16.20
2018-05-10T21:30:47.456Z,15.51
2018-05-10T21:41:47.433Z,15.32
2018-05-10T21:52:47.726Z,15.22
2018-05-10T22:03:46.951Z,15.22
2018-05-10T22:14:44.515Z,14.93
2018-05-10T22:25:45.300Z,14.93
2018-05-10T22:36:43.065Z,15.12
2018-05-10T22:47:43.846Z,15.03
2018-05-10T22:58:45.609Z,15.22
2018-05-10T23:09:47.796Z,15.12
2018-05-10T23:20:49.572Z,15.03
2018-05-10T23:31:50.146Z,14.73
2018-05-10T23:42:51.485Z,14.83
2018-05-10T23:53:52.870Z,14.73
